createdAt,value
2023-01-20T00:00:47.372Z,40.92
2023-01-20T00:03:14.180Z,43.33
2023-01-20T00:05:50.092Z,41.90
2023-01-20T00:08:17.008Z,43.35
2023-01-20T00:10:43.704Z,39.70
2023-01-20T00:13:10.428Z,43.63
2023-01-20T00:15:37.190Z,44.70
2023-01-20T00:18:04.027Z,45.35
2023-01-20T00:20:30.755Z,45.67
2023-01-20T00:22:57.520Z,46.60
2023-01-20T00:25:24.253Z,45.55
2023-01-20T00:27:54.558Z,49.03
2023-01-20T00:30:22.048Z,43.20
2023-01-20T00:32:48.788Z,47.88
2023-01-20T00:35:15.783Z,48.15
2023-01-20T00:37:43.642Z,44.47
2023-01-20T00:40:10.959Z,47.20
2023-01-20T00:42:37.625Z,44.90
2023-01-20T00:45:04.797Z,44.25
2023-01-20T00:47:31.781Z,47.60
2023-01-20T00:49:58.458Z,45.25
2023-01-20T00:52:25.177Z,44.15
2023-01-20T00:54:51.884Z,43.90
2023-01-20T00:57:18.732Z,47.63
2023-01-20T00:59:45.466Z,44.40
2023-01-20T01:02:12.261Z,43.03
2023-01-20T01:04:38.967Z,49.65
2023-01-20T01:07:05.692Z,48.95
2023-01-20T01:09:32.677Z,45.85
2023-01-20T01:11:59.387Z,45.53
2023-01-20T01:14:26.150Z,44.55
2023-01-20T01:16:52.890Z,42.78
2023-01-20T01:19:19.908Z,39.22
2023-01-20T01:21:46.616Z,43.17
2023-01-20T01:24:14.134Z,44.95
2023-01-20T01:26:40.955Z,43.83
2023-01-20T01:29:07.680Z,46.22
2023-01-20T01:31:34.495Z,43.70
2023-01-20T01:34:01.185Z,45.67
2023-01-20T01:36:28.025Z,43.38
2023-01-20T01:38:58.423Z,46.03
2023-01-20T01:41:26.265Z,41.13
2023-01-20T01:44:03.988Z,40.83
2023-01-20T01:46:31.341Z,45.42
2023-01-20T01:49:01.743Z,41.95
2023-01-20T01:51:32.526Z,42.20
2023-01-20T01:54:13.301Z,40.40
2023-01-20T01:56:43.237Z,42.90
2023-01-20T01:59:11.982Z,35.40
2023-01-20T02:01:40.869Z,35.90
2023-01-20T02:04:13.819Z,38.88
2023-01-20T02:06:45.079Z,37.22
2023-01-20T02:09:12.431Z,34.33
2023-01-20T02:12:01.064Z,30.90
2023-01-20T02:14:35.885Z,28.17
2023-01-20T02:17:17.682Z,27.50
2023-01-20T02:20:02.846Z,27.60
2023-01-20T02:22:41.531Z,29.13
2023-01-20T02:25:41.313Z,28.50
2023-01-20T02:28:38.083Z,25.42
2023-01-20T02:31:23.254Z,29.73
2023-01-20T02:34:01.047Z,28.35
2023-01-20T02:36:55.709Z,29.25
2023-01-20T02:39:52.190Z,30.42
2023-01-20T02:42:39.489Z,30.23
2023-01-20T02:45:24.120Z,26.73
2023-01-20T02:48:01.649Z,33.78
2023-01-20T02:50:37.792Z,30.58
2023-01-20T02:53:07.537Z,34.13
2023-01-20T02:55:41.425Z,33.90
2023-01-20T02:58:14.005Z,31.83
2023-01-20T03:00:46.153Z,33.33
2023-01-20T03:03:18.139Z,31.17
2023-01-20T03:05:54.578Z,31.73
2023-01-20T03:08:23.651Z,35.22
2023-01-20T03:10:54.474Z,26.33
2023-01-20T03:13:45.760Z,28.30
2023-01-20T03:16:18.830Z,28.63
2023-01-20T03:18:46.011Z,24.52
2023-01-20T03:21:14.162Z,29.30
2023-01-20T03:23:44.511Z,24.58
2023-01-20T03:26:13.625Z,29.70
2023-01-20T03:28:44.573Z,27.55
2023-01-20T03:31:17.766Z,26.27
2023-01-20T03:33:46.576Z,28.48
2023-01-20T03:36:16.065Z,28.90
2023-01-20T03:38:44.840Z,29.98
2023-01-20T03:41:14.527Z,28.92
2023-01-20T03:43:54.515Z,28.65
2023-01-20T03:46:27.298Z,30.88
2023-01-20T03:49:28.381Z,33.85
2023-01-20T03:52:03.787Z,32.58
2023-01-20T03:55:00.163Z,33.50
2023-01-20T03:57:35.354Z,29.95
2023-01-20T04:00:05.328Z,40.08
2023-01-20T04:02:33.764Z,34.20
2023-01-20T04:05:03.342Z,35.83
2023-01-20T04:07:32.216Z,37.50
2023-01-20T04:10:06.157Z,40.20
2023-01-20T04:12:33.207Z,38.95
2023-01-20T04:15:01.078Z,49.20
2023-01-20T04:17:29.303Z,40.72
2023-01-20T04:19:57.311Z,46.50
2023-01-20T04:22:48.637Z,46.50
2023-01-20T04:25:20.577Z,54.75
2023-01-20T04:27:47.441Z,49.90
2023-01-20T04:30:14.905Z,45.33
2023-01-20T04:32:41.664Z,51.58
2023-01-20T04:35:12.902Z,52.33
2023-01-20T04:37:40.024Z,50.17
2023-01-20T04:40:07.236Z,50.92
2023-01-20T04:42:33.935Z,51.65
2023-01-20T04:45:00.748Z,49.85
2023-01-20T04:47:33.747Z,54.25
2023-01-20T04:50:00.459Z,50.90
2023-01-20T04:52:27.239Z,52.58
2023-01-20T04:54:53.963Z,54.50
2023-01-20T04:57:20.796Z,52.22
2023-01-20T04:59:47.503Z,50.75
2023-01-20T05:02:14.239Z,50.70
2023-01-20T05:04:41.007Z,51.28
2023-01-20T05:07:07.710Z,50.58
2023-01-20T05:09:34.403Z,51.55
2023-01-20T05:12:01.122Z,50.28
2023-01-20T05:14:27.853Z,45.45
2023-01-20T05:16:54.799Z,48.15
2023-01-20T05:19:21.461Z,50.80
2023-01-20T05:21:48.186Z,48.00
2023-01-20T05:24:14.832Z,46.55
2023-01-20T05:26:41.699Z,39.42
2023-01-20T05:29:09.210Z,35.88
2023-01-20T05:31:37.585Z,40.63
2023-01-20T05:34:05.022Z,37.63
2023-01-20T05:36:32.793Z,38.70
2023-01-20T05:38:59.461Z,39.75
2023-01-20T05:41:26.165Z,42.60
2023-01-20T05:43:53.971Z,40.63
2023-01-20T05:46:21.275Z,40.17
2023-01-20T05:48:48.184Z,37.33
2023-01-20T05:51:14.841Z,38.65
2023-01-20T05:53:41.532Z,33.25
2023-01-20T05:56:08.406Z,31.50
2023-01-20T05:58:35.225Z,33.15
2023-01-20T06:01:10.791Z,36.30
2023-01-20T06:03:38.057Z,32.47
2023-01-20T06:06:14.122Z,31.73
2023-01-20T06:08:41.457Z,36.28
2023-01-20T06:11:08.173Z,34.50
2023-01-20T06:13:39.639Z,33.35
2023-01-20T06:16:07.504Z,35.95
2023-01-20T06:18:34.898Z,36.65
2023-01-20T06:21:01.622Z,39.72
2023-01-20T06:23:28.614Z,33.38
2023-01-20T06:25:59.463Z,29.30
2023-01-20T06:28:26.440Z,31.53
2023-01-20T06:30:59.991Z,33.22
2023-01-20T06:33:26.953Z,35.42
2023-01-20T06:35:55.539Z,30.63
2023-01-20T06:38:28.193Z,35.40
2023-01-20T06:41:07.519Z,30.02
2023-01-20T06:43:35.352Z,34.67
2023-01-20T06:46:04.121Z,38.63
2023-01-20T06:48:31.772Z,38.13
2023-01-20T06:51:06.669Z,34.42
2023-01-20T06:53:34.129Z,35.92
2023-01-20T06:56:01.421Z,36.63
2023-01-20T06:58:31.183Z,35.45
2023-01-20T07:00:58.690Z,35.88
2023-01-20T07:03:25.449Z,36.88
2023-01-20T07:06:05.790Z,37.97
2023-01-20T07:08:32.572Z,38.03
2023-01-20T07:10:59.228Z,30.10
2023-01-20T07:13:25.874Z,27.70
2023-01-20T07:15:53.183Z,27.33
2023-01-20T07:18:19.932Z,25.80
2023-01-20T07:20:46.667Z,27.63
2023-01-20T07:23:13.808Z,24.50
2023-01-20T07:25:40.481Z,25.60
2023-01-20T07:28:07.351Z,27.52
2023-01-20T07:30:34.024Z,33.92
2023-01-20T07:33:00.724Z,29.58
2023-01-20T07:35:27.471Z,33.33
2023-01-20T07:37:54.309Z,34.50
2023-01-20T07:40:21.304Z,37.55
2023-01-20T07:42:47.997Z,33.42
2023-01-20T07:45:16.278Z,35.20
2023-01-20T07:47:43.323Z,36.38
2023-01-20T07:50:10.644Z,33.58
2023-01-20T07:52:37.342Z,41.10
2023-01-20T07:55:04.292Z,32.95
2023-01-20T07:57:31.177Z,40.25
2023-01-20T07:59:57.929Z,37.92
2023-01-20T08:02:24.660Z,36.83
2023-01-20T08:04:51.371Z,36.15
2023-01-20T08:07:18.257Z,35.03
2023-01-20T08:09:45.005Z,36.28
2023-01-20T08:12:11.862Z,42.67
2023-01-20T08:14:38.523Z,39.67
2023-01-20T08:17:05.314Z,35.58
2023-01-20T08:19:31.945Z,36.65
2023-01-20T08:21:58.644Z,34.35
2023-01-20T08:24:25.446Z,35.05
2023-01-20T08:26:52.318Z,35.03
2023-01-20T08:29:19.013Z,38.90
2023-01-20T08:31:45.929Z,36.20
2023-01-20T08:34:12.804Z,39.00
2023-01-20T08:36:41.260Z,41.08
2023-01-20T08:39:10.433Z,39.53
2023-01-20T08:41:39.267Z,34.85
2023-01-20T08:44:07.757Z,36.72
2023-01-20T08:46:35.079Z,41.10
2023-01-20T08:49:01.829Z,37.15
2023-01-20T08:51:31.315Z,42.05
2023-01-20T08:53:58.607Z,36.20
2023-01-20T08:56:25.679Z,37.55
2023-01-20T08:58:53.892Z,40.10
2023-01-20T09:01:26.717Z,41.00
2023-01-20T09:04:05.424Z,46.50
2023-01-20T09:06:46.220Z,39.60
2023-01-20T09:09:15.067Z,33.58
2023-01-20T09:11:44.811Z,38.13
2023-01-20T09:14:11.682Z,32.75
2023-01-20T09:16:38.512Z,33.40
2023-01-20T09:19:05.212Z,32.85
2023-01-20T09:21:31.949Z,34.80
2023-01-20T09:23:58.655Z,35.05
2023-01-20T09:26:35.211Z,33.97
2023-01-20T09:29:09.399Z,32.28
2023-01-20T09:31:46.047Z,30.15
2023-01-20T09:34:19.413Z,26.25
2023-01-20T09:36:49.841Z,29.55
2023-01-20T09:39:36.092Z,27.80
2023-01-20T09:42:45.401Z,27.00
2023-01-20T09:45:24.754Z,28.17
2023-01-20T09:47:54.061Z,25.40
2023-01-20T09:50:51.654Z,28.55
2023-01-20T09:53:41.665Z,30.05
2023-01-20T09:56:22.844Z,33.25
2023-01-20T09:58:58.873Z,30.13
2023-01-20T10:01:33.234Z,29.42
2023-01-20T10:04:26.049Z,34.53
2023-01-20T10:07:03.961Z,27.75
2023-01-20T10:09:45.573Z,30.70
2023-01-20T10:12:21.064Z,28.75
2023-01-20T10:15:09.444Z,29.00
2023-01-20T10:17:54.083Z,28.30
2023-01-20T10:20:33.284Z,29.15
2023-01-20T10:23:10.941Z,29.85
2023-01-20T10:25:50.126Z,28.85
2023-01-20T10:28:27.910Z,29.73
2023-01-20T10:30:58.312Z,28.55
2023-01-20T10:33:38.683Z,28.80
2023-01-20T10:36:12.519Z,26.50
2023-01-20T10:38:39.371Z,24.05
2023-01-20T10:41:14.611Z,25.55
2023-01-20T10:43:42.805Z,22.00
2023-01-20T10:46:43.524Z,23.13
2023-01-20T10:49:25.548Z,22.83
2023-01-20T10:54:52.279Z,25.23
2023-01-20T10:57:19.426Z,22.83
2023-01-20T10:59:50.488Z,22.67
2023-01-20T11:02:29.090Z,22.55
2023-01-20T11:05:16.468Z,15.07
2023-01-20T11:07:44.540Z,5.20
2023-01-20T11:10:22.053Z,8.02
2023-01-20T11:13:00.499Z,9.27
2023-01-20T11:15:35.392Z,9.43
2023-01-20T11:18:17.135Z,6.13
2023-01-20T11:21:08.049Z,5.90
2023-01-20T11:23:49.264Z,8.73
2023-01-20T11:26:27.849Z,11.27
2023-01-20T11:28:57.177Z,7.82
2023-01-20T11:31:36.013Z,9.93
2023-01-20T11:34:29.186Z,7.10
2023-01-20T11:37:05.165Z,12.98
2023-01-20T11:39:50.147Z,14.95
2023-01-20T11:42:25.880Z,9.95
2023-01-20T11:45:08.514Z,9.90
2023-01-20T11:47:46.099Z,14.18
2023-01-20T11:50:35.771Z,8.65
2023-01-20T11:53:20.942Z,10.15
2023-01-20T11:56:18.680Z,7.45
2023-01-20T11:58:57.553Z,7.15
2023-01-20T12:01:58.129Z,7.53
2023-01-20T12:04:41.182Z,4.72
2023-01-20T12:07:11.259Z,12.38
2023-01-20T12:09:43.138Z,4.15
2023-01-20T12:12:15.931Z,4.10
2023-01-20T12:14:56.339Z,6.90
2023-01-20T12:17:33.044Z,3.33
2023-01-20T12:20:10.049Z,4.60
2023-01-20T12:23:14.161Z,5.43
2023-01-20T12:25:49.232Z,2.20
2023-01-20T12:28:28.986Z,5.80
2023-01-20T12:31:04.494Z,3.97
2023-01-20T12:33:35.152Z,1.67
2023-01-20T12:36:04.591Z,3.50
2023-01-20T12:38:43.465Z,2.33
2023-01-20T12:41:24.852Z,3.10
2023-01-20T12:44:11.890Z,4.53
2023-01-20T12:46:50.182Z,2.35
2023-01-20T12:49:47.296Z,7.15
2023-01-20T12:52:25.995Z,8.27
2023-01-20T12:55:21.936Z,5.68
2023-01-20T12:58:03.273Z,6.80
2023-01-20T13:00:35.786Z,6.53
2023-01-20T13:03:02.429Z,7.93
2023-01-20T13:05:41.148Z,5.13
2023-01-20T13:08:36.369Z,7.63
2023-01-20T13:11:44.497Z,6.30
2023-01-20T13:14:26.124Z,6.72
2023-01-20T13:17:28.173Z,5.47
2023-01-20T13:19:59.209Z,5.20
2023-01-20T13:22:26.242Z,4.45
2023-01-20T13:24:57.516Z,7.78
2023-01-20T13:27:34.949Z,6.32
2023-01-20T13:30:05.364Z,6.03
2023-01-20T13:32:43.705Z,6.18
2023-01-20T13:35:25.419Z,4.68
2023-01-20T13:37:57.645Z,5.28
2023-01-20T13:40:35.969Z,4.15
2023-01-20T13:43:26.249Z,9.52
2023-01-20T13:46:05.130Z,3.08
2023-01-20T13:48:34.054Z,5.07
2023-01-20T13:51:15.958Z,8.52
2023-01-20T13:56:34.323Z,8.52
2023-01-20T13:59:01.139Z,6.95
2023-01-20T14:01:28.360Z,6.20
2023-01-20T14:04:05.587Z,7.05
2023-01-20T14:06:35.614Z,7.03
2023-01-20T14:09:03.483Z,8.13
2023-01-20T14:11:31.234Z,7.20
2023-01-20T14:14:05.716Z,9.98
2023-01-20T14:16:35.480Z,7.65
2023-01-20T14:19:17.849Z,6.32
2023-01-20T14:21:44.657Z,6.40
2023-01-20T14:24:32.329Z,8.85
2023-01-20T14:27:08.531Z,6.13
2023-01-20T14:29:35.220Z,8.68
2023-01-20T14:32:01.999Z,8.73
2023-01-20T14:34:30.706Z,8.00
2023-01-20T14:36:59.860Z,8.27
2023-01-20T14:39:29.127Z,7.00
2023-01-20T14:41:58.005Z,7.95
2023-01-20T14:44:32.535Z,6.82
2023-01-20T14:47:01.977Z,10.45
2023-01-20T14:49:35.421Z,11.52
2023-01-20T14:52:03.724Z,12.05
2023-01-20T14:54:44.678Z,11.60
2023-01-20T14:57:19.382Z,10.55
2023-01-20T14:59:46.386Z,8.80
2023-01-20T15:02:28.947Z,8.40
2023-01-20T15:04:56.168Z,9.70
2023-01-20T15:07:24.574Z,9.43
2023-01-20T15:10:03.060Z,11.43
2023-01-20T15:12:32.911Z,13.75
2023-01-20T15:15:26.698Z,14.27
2023-01-20T15:18:11.667Z,17.25
2023-01-20T15:20:41.804Z,16.13
2023-01-20T15:23:29.898Z,14.85
2023-01-20T15:25:56.820Z,14.15
2023-01-20T15:28:29.361Z,15.25
2023-01-20T15:30:58.808Z,14.65
2023-01-20T15:33:26.174Z,18.35
2023-01-20T15:35:58.424Z,20.23
2023-01-20T15:38:30.932Z,26.67
2023-01-20T15:40:57.834Z,22.33
2023-01-20T15:43:24.767Z,20.50
2023-01-20T15:45:51.459Z,19.45
2023-01-20T15:48:22.223Z,21.88
2023-01-20T15:50:49.188Z,20.15
2023-01-20T15:53:16.019Z,18.00
2023-01-20T15:55:49.109Z,17.25
2023-01-20T15:58:26.092Z,16.65
2023-01-20T16:00:56.043Z,17.15
2023-01-20T16:03:26.324Z,20.88
2023-01-20T16:05:54.608Z,17.08
2023-01-20T16:08:35.677Z,17.17
2023-01-20T16:11:05.532Z,19.23
2023-01-20T16:13:32.757Z,20.42
2023-01-20T16:16:02.332Z,22.02
2023-01-20T16:18:30.302Z,26.40
2023-01-20T16:20:57.152Z,27.20
2023-01-20T16:23:26.388Z,27.17
2023-01-20T16:25:54.307Z,25.15
2023-01-20T16:28:23.565Z,24.67
2023-01-20T16:30:53.950Z,30.10
2023-01-20T16:33:24.855Z,36.33
2023-01-20T16:35:54.168Z,39.70
2023-01-20T16:38:25.493Z,40.10
2023-01-20T16:41:04.192Z,41.15
2023-01-20T16:43:30.907Z,40.15
2023-01-20T16:45:57.689Z,43.13
2023-01-20T16:48:25.871Z,40.90
2023-01-20T16:50:53.200Z,38.08
2023-01-20T16:53:22.407Z,42.60
2023-01-20T16:55:49.706Z,36.38
2023-01-20T16:58:17.185Z,41.60
2023-01-20T17:00:48.975Z,38.70
2023-01-20T17:05:42.591Z,35.17
2023-01-20T17:08:09.546Z,38.00
2023-01-20T17:10:36.359Z,36.75
2023-01-20T17:13:03.085Z,36.90
2023-01-20T17:15:29.916Z,37.88
2023-01-20T17:17:58.329Z,35.13
2023-01-20T17:20:26.507Z,41.65
2023-01-20T17:22:55.649Z,34.92
2023-01-20T17:25:23.055Z,37.97
2023-01-20T17:27:50.153Z,38.13
2023-01-20T17:30:17.355Z,38.80
2023-01-20T17:32:48.334Z,38.20
2023-01-20T17:35:16.241Z,39.05
2023-01-20T17:37:44.178Z,38.40
2023-01-20T17:40:12.391Z,36.65
2023-01-20T17:42:39.181Z,35.55
2023-01-20T17:45:06.476Z,38.08
2023-01-20T17:47:33.421Z,36.47
2023-01-20T17:50:00.085Z,34.20
2023-01-20T17:52:28.245Z,36.55
2023-01-20T17:54:55.015Z,36.20
2023-01-20T17:57:21.917Z,34.30
2023-01-20T17:59:48.775Z,35.72
2023-01-20T18:02:18.457Z,29.50
2023-01-20T18:04:45.261Z,30.02
2023-01-20T18:07:12.195Z,27.33
2023-01-20T18:09:39.030Z,27.00
2023-01-20T18:12:06.381Z,26.08
2023-01-20T18:14:33.038Z,25.33
2023-01-20T18:16:59.979Z,23.48
2023-01-20T18:19:26.782Z,23.00
2023-01-20T18:21:53.463Z,24.73
2023-01-20T18:24:20.199Z,22.98
2023-01-20T18:26:47.096Z,22.00
2023-01-20T18:29:16.437Z,22.95
2023-01-20T18:31:45.218Z,23.23
2023-01-20T18:34:15.644Z,22.23
2023-01-20T18:36:46.257Z,23.98
2023-01-20T18:39:31.177Z,24.33
2023-01-20T18:41:57.957Z,25.73
2023-01-20T18:44:25.142Z,25.15
2023-01-20T18:46:54.815Z,27.30
2023-01-20T18:49:26.798Z,24.15
2023-01-20T18:51:58.725Z,23.13
2023-01-20T18:54:26.278Z,27.42
2023-01-20T18:56:53.158Z,28.23
2023-01-20T18:59:25.374Z,27.50
2023-01-20T19:01:52.086Z,29.67
2023-01-20T19:04:18.811Z,29.70
2023-01-20T19:06:47.890Z,30.15
2023-01-20T19:09:16.788Z,29.42
2023-01-20T19:11:43.603Z,29.30
2023-01-20T19:14:17.930Z,33.28
2023-01-20T19:16:49.402Z,31.10
2023-01-20T19:19:19.086Z,36.45
2023-01-20T19:21:46.299Z,32.70
2023-01-20T19:24:20.057Z,31.77
2023-01-20T19:26:52.568Z,34.00
2023-01-20T19:29:19.742Z,35.13
2023-01-20T19:31:49.234Z,34.28
2023-01-20T19:34:16.165Z,37.22
2023-01-20T19:36:42.946Z,36.28
2023-01-20T19:39:09.820Z,38.53
2023-01-20T19:41:39.241Z,39.35
2023-01-20T19:44:07.748Z,42.30
2023-01-20T19:46:39.336Z,43.10
2023-01-20T19:49:06.915Z,42.38
2023-01-20T19:51:34.047Z,48.45
2023-01-20T19:54:01.735Z,44.90
2023-01-20T19:56:31.040Z,45.42
2023-01-20T19:59:00.767Z,45.50
2023-01-20T20:01:35.672Z,45.67
2023-01-20T20:04:07.721Z,45.85
2023-01-20T20:06:39.326Z,48.03
2023-01-20T20:09:11.732Z,52.75
2023-01-20T20:11:38.904Z,49.45
2023-01-20T20:14:07.909Z,57.40
2023-01-20T20:16:36.629Z,58.03
2023-01-20T20:19:04.495Z,58.33
2023-01-20T20:21:31.331Z,50.28
2023-01-20T20:24:02.436Z,57.28
2023-01-20T20:26:31.284Z,58.67
2023-01-20T20:29:05.235Z,59.78
2023-01-20T20:31:34.401Z,60.63
2023-01-20T20:34:03.111Z,58.70
2023-01-20T20:36:32.869Z,55.67
2023-01-20T20:39:01.153Z,58.45
2023-01-20T20:41:31.419Z,59.88
2023-01-20T20:44:01.887Z,64.05
2023-01-20T20:46:29.813Z,57.78
2023-01-20T20:49:03.853Z,59.28
2023-01-20T20:51:32.609Z,62.03
2023-01-20T20:54:02.993Z,58.60
2023-01-20T20:56:33.720Z,56.33
2023-01-20T20:59:06.276Z,58.42
2023-01-20T21:01:36.837Z,59.47
2023-01-20T21:04:06.533Z,58.08
2023-01-20T21:06:40.786Z,60.28
2023-01-20T21:09:07.563Z,58.60
2023-01-20T21:11:34.351Z,61.63
2023-01-20T21:14:01.040Z,56.38
2023-01-20T21:16:28.340Z,63.72
2023-01-20T21:18:56.556Z,62.72
2023-01-20T21:21:24.395Z,59.40
2023-01-20T21:23:56.756Z,60.95
2023-01-20T21:26:25.079Z,57.42
2023-01-20T21:28:52.227Z,63.35
2023-01-20T21:31:22.225Z,57.22
2023-01-20T21:33:58.193Z,63.67
2023-01-20T21:36:26.443Z,60.55
2023-01-20T21:38:53.326Z,58.00
2023-01-20T21:41:20.360Z,59.58
2023-01-20T21:44:06.714Z,66.93
2023-01-20T21:46:42.307Z,60.10
2023-01-20T21:49:27.991Z,56.05
2023-01-20T21:52:14.363Z,62.40
2023-01-20T21:54:41.795Z,60.63
2023-01-20T21:57:09.021Z,61.65
2023-01-20T21:59:36.013Z,60.35
2023-01-20T22:02:02.752Z,58.47
2023-01-20T22:04:29.516Z,57.78
2023-01-20T22:06:56.254Z,58.85
2023-01-20T22:09:23.068Z,60.97
2023-01-20T22:11:50.048Z,53.53
2023-01-20T22:14:16.757Z,58.80
2023-01-20T22:16:43.700Z,57.55
2023-01-20T22:19:14.950Z,61.60
2023-01-20T22:21:42.234Z,58.38
2023-01-20T22:24:09.442Z,63.88
2023-01-20T22:26:36.215Z,59.90
2023-01-20T22:29:03.152Z,60.88
2023-01-20T22:31:31.709Z,57.95
2023-01-20T22:33:59.338Z,61.88
2023-01-20T22:36:26.252Z,60.47
2023-01-20T22:38:53.601Z,60.22
2023-01-20T22:41:21.280Z,61.15
2023-01-20T22:43:50.250Z,66.22
2023-01-20T22:46:19.191Z,61.30
2023-01-20T22:48:46.651Z,64.88
2023-01-20T22:51:20.381Z,61.55
2023-01-20T22:53:47.417Z,62.05
2023-01-20T22:56:17.367Z,62.92
2023-01-20T22:58:44.550Z,66.53
2023-01-20T23:01:13.436Z,60.47
2023-01-20T23:03:40.544Z,62.55
2023-01-20T23:06:08.563Z,61.40
2023-01-20T23:08:35.473Z,63.05
2023-01-20T23:11:09.409Z,62.72
2023-01-20T23:13:36.568Z,63.17
2023-01-20T23:16:04.780Z,68.97
2023-01-20T23:18:32.091Z,62.42
2023-01-20T23:20:58.911Z,65.88
2023-01-20T23:23:26.871Z,66.72
2023-01-20T23:26:13.218Z,62.30
2023-01-20T23:28:40.044Z,63.15
2023-01-20T23:31:08.537Z,67.85
2023-01-20T23:33:35.307Z,62.15
2023-01-20T23:36:14.395Z,65.50
2023-01-20T23:38:42.364Z,63.72
2023-01-20T23:41:09.597Z,63.55
2023-01-20T23:43:36.261Z,65.30
2023-01-20T23:46:05.664Z,66.47
2023-01-20T23:48:33.636Z,66.15
2023-01-20T23:51:01.786Z,63.95
2023-01-20T23:53:30.457Z,65.82
2023-01-20T23:56:00.975Z,68.28
2023-01-20T23:58:28.099Z,69.65
